sensor_id;sensor_type;location;lat;lon;timestamp;pressure;altitude;pressure_sealevel;temperature;humidity
58534;BME280;44109;52.398;7.024;2023-02-20T00:01:04;102195.16;;;6.05;100.00
58534;BME280;44109;52.398;7.024;2023-02-20T00:03:32;102209.16;;;6.09;100.00
58534;BME280;44109;52.398;7.024;2023-02-20T00:06:01;102210.47;;;5.98;100.00
58534;BME280;44109;52.398;7.024;2023-02-20T00:08:28;102208.00;;;5.96;100.00
58534;BME280;44109;52.398;7.024;2023-02-20T00:10:56;102203.13;;;6.07;100.00
58534;BME280;44109;52.398;7.024;2023-02-20T00:13:23;102183.91;;;5.88;100.00
58534;BME280;44109;52.398;7.024;2023-02-20T00:15:51;102201.06;;;5.99;100.00
58534;BME280;44109;52.398;7.024;2023-02-20T00:18:19;102193.44;;;5.96;100.00
58534;BME280;44109;52.398;7.024;2023-02-20T00:20:46;102196.78;;;5.93;100.00
58534;BME280;44109;52.398;7.024;2023-02-20T00:23:16;102191.84;;;5.90;100.00
58534;BME280;44109;52.398;7.024;2023-02-20T00:25:44;102193.78;;;5.89;100.00
58534;BME280;44109;52.398;7.024;2023-02-20T00:28:12;102190.31;;;5.83;100.00
58534;BME280;44109;52.398;7.024;2023-02-20T00:30:40;102183.88;;;5.74;100.00
58534;BME280;44109;52.398;7.024;2023-02-20T00:33:07;102177.75;;;5.64;100.00
58534;BME280;44109;52.398;7.024;2023-02-20T00:35:35;102158.75;;;5.62;100.00
58534;BME280;44109;52.398;7.024;2023-02-20T00:38:03;102153.09;;;5.72;100.00
58534;BME280;44109;52.398;7.024;2023-02-20T00:40:33;102142.25;;;5.62;100.00
58534;BME280;44109;52.398;7.024;2023-02-20T00:43:00;102129.31;;;5.76;100.00
58534;BME280;44109;52.398;7.024;2023-02-20T00:45:28;102128.59;;;5.84;100.00
58534;BME280;44109;52.398;7.024;2023-02-20T00:47:55;102133.41;;;5.79;100.00
58534;BME280;44109;52.398;7.024;2023-02-20T00:50:23;102139.13;;;5.82;100.00
58534;BME280;44109;52.398;7.024;2023-02-20T00:52:51;102137.69;;;5.85;100.00
58534;BME280;44109;52.398;7.024;2023-02-20T00:55:18;102129.63;;;5.89;100.00
58534;BME280;44109;52.398;7.024;2023-02-20T00:57:47;102127.81;;;5.98;100.00
58534;BME280;44109;52.398;7.024;2023-02-20T01:02:43;102126.81;;;5.94;100.00
58534;BME280;44109;52.398;7.024;2023-02-20T01:05:11;102125.38;;;6.10;100.00
58534;BME280;44109;52.398;7.024;2023-02-20T01:07:39;102112.81;;;6.04;100.00
58534;BME280;44109;52.398;7.024;2023-02-20T01:10:07;102084.25;;;5.86;100.00
58534;BME280;44109;52.398;7.024;2023-02-20T01:12:36;102096.81;;;6.06;100.00
58534;BME280;44109;52.398;7.024;2023-02-20T01:15:08;102082.94;;;6.11;100.00
58534;BME280;44109;52.398;7.024;2023-02-20T01:17:40;102082.13;;;6.10;100.00
58534;BME280;44109;52.398;7.024;2023-02-20T01:20:09;102082.81;;;6.16;100.00
58534;BME280;44109;52.398;7.024;2023-02-20T01:22:37;102082.50;;;6.04;100.00
58534;BME280;44109;52.398;7.024;2023-02-20T01:25:06;102062.13;;;6.19;100.00
58534;BME280;44109;52.398;7.024;2023-02-20T01:27:34;102054.53;;;6.24;100.00
58534;BME280;44109;52.398;7.024;2023-02-20T01:30:02;102035.06;;;6.21;100.00
58534;BME280;44109;52.398;7.024;2023-02-20T01:32:31;102031.84;;;6.41;100.00
58534;BME280;44109;52.398;7.024;2023-02-20T01:34:59;102043.81;;;6.37;100.00
58534;BME280;44109;52.398;7.024;2023-02-20T01:37:27;102034.66;;;6.27;100.00
58534;BME280;44109;52.398;7.024;2023-02-20T01:39:54;102048.66;;;6.40;100.00
58534;BME280;44109;52.398;7.024;2023-02-20T01:42:24;102023.91;;;6.26;100.00
58534;BME280;44109;52.398;7.024;2023-02-20T01:47:47;102032.66;;;6.42;100.00
58534;BME280;44109;52.398;7.024;2023-02-20T01:50:17;102022.38;;;6.33;100.00
58534;BME280;44109;52.398;7.024;2023-02-20T01:52:50;102017.66;;;6.34;100.00
58534;BME280;44109;52.398;7.024;2023-02-20T01:55:23;102015.16;;;6.24;100.00
58534;BME280;44109;52.398;7.024;2023-02-20T01:57:58;102022.56;;;6.01;100.00
58534;BME280;44109;52.398;7.024;2023-02-20T02:00:29;102013.78;;;5.99;100.00
58534;BME280;44109;52.398;7.024;2023-02-20T02:03:01;101989.72;;;6.04;100.00
58534;BME280;44109;52.398;7.024;2023-02-20T02:05:33;101987.38;;;5.98;100.00
58534;BME280;44109;52.398;7.024;2023-02-20T02:08:06;101966.38;;;5.74;100.00
58534;BME280;44109;52.398;7.024;2023-02-20T02:10:45;101974.59;;;5.88;100.00
58534;BME280;44109;52.398;7.024;2023-02-20T02:13:16;101980.94;;;5.89;100.00
58534;BME280;44109;52.398;7.024;2023-02-20T02:15:44;101976.47;;;5.93;100.00
58534;BME280;44109;52.398;7.024;2023-02-20T02:18:25;101975.34;;;5.94;100.00
58534;BME280;44109;52.398;7.024;2023-02-20T02:21:39;101967.72;;;6.13;100.00
58534;BME280;44109;52.398;7.024;2023-02-20T02:24:53;101957.38;;;5.96;100.00
58534;BME280;44109;52.398;7.024;2023-02-20T02:35:24;101938.59;;;5.84;100.00
58534;BME280;44109;52.398;7.024;2023-02-20T02:38:25;101948.91;;;5.93;100.00
58534;BME280;44109;52.398;7.024;2023-02-20T02:41:05;101934.63;;;5.91;100.00
58534;BME280;44109;52.398;7.024;2023-02-20T02:43:47;101926.00;;;5.70;100.00
58534;BME280;44109;52.398;7.024;2023-02-20T02:46:21;101941.16;;;5.95;100.00
58534;BME280;44109;52.398;7.024;2023-02-20T02:48:59;101929.53;;;5.98;100.00
58534;BME280;44109;52.398;7.024;2023-02-20T02:51:38;101927.47;;;6.03;100.00
58534;BME280;44109;52.398;7.024;2023-02-20T02:54:12;101928.28;;;6.04;100.00
58534;BME280;44109;52.398;7.024;2023-02-20T02:56:44;101921.66;;;6.05;100.00
58534;BME280;44109;52.398;7.024;2023-02-20T02:59:17;101916.63;;;6.07;100.00
58534;BME280;44109;52.398;7.024;2023-02-20T03:01:53;101906.06;;;6.00;100.00
58534;BME280;44109;52.398;7.024;2023-02-20T03:04:40;101926.84;;;6.06;100.00
58534;BME280;44109;52.398;7.024;2023-02-20T03:07:14;101921.13;;;6.03;100.00
58534;BME280;44109;52.398;7.024;2023-02-20T03:09:47;101918.09;;;5.91;100.00
58534;BME280;44109;52.398;7.024;2023-02-20T03:12:21;101931.66;;;6.01;100.00
58534;BME280;44109;52.398;7.024;2023-02-20T03:14:57;101917.91;;;6.01;100.00
58534;BME280;44109;52.398;7.024;2023-02-20T03:17:50;101919.25;;;6.12;100.00
58534;BME280;44109;52.398;7.024;2023-02-20T03:20:26;101922.75;;;6.04;100.00
58534;BME280;44109;52.398;7.024;2023-02-20T03:22:57;101922.88;;;5.99;100.00
58534;BME280;44109;52.398;7.024;2023-02-20T03:25:30;101927.28;;;6.00;100.00
58534;BME280;44109;52.398;7.024;2023-02-20T03:28:06;101914.34;;;5.87;100.00
58534;BME280;44109;52.398;7.024;2023-02-20T03:30:42;101918.91;;;6.05;100.00
58534;BME280;44109;52.398;7.024;2023-02-20T03:33:18;101922.03;;;6.12;100.00
58534;BME280;44109;52.398;7.024;2023-02-20T03:36:11;101913.41;;;6.05;100.00
58534;BME280;44109;52.398;7.024;2023-02-20T03:39:03;101907.25;;;6.08;100.00
58534;BME280;44109;52.398;7.024;2023-02-20T03:41:53;101914.00;;;6.02;100.00
58534;BME280;44109;52.398;7.024;2023-02-20T03:44:40;101919.38;;;6.07;100.00
58534;BME280;44109;52.398;7.024;2023-02-20T03:47:12;101927.56;;;5.98;100.00
58534;BME280;44109;52.398;7.024;2023-02-20T03:49:45;101923.41;;;6.01;100.00
58534;BME280;44109;52.398;7.024;2023-02-20T03:52:16;101915.00;;;6.06;100.00
58534;BME280;44109;52.398;7.024;2023-02-20T03:54:46;101912.38;;;6.01;100.00
58534;BME280;44109;52.398;7.024;2023-02-20T03:57:17;101899.56;;;5.96;100.00
58534;BME280;44109;52.398;7.024;2023-02-20T03:59:52;101896.59;;;5.93;100.00
58534;BME280;44109;52.398;7.024;2023-02-20T04:02:30;101893.22;;;5.96;100.00
58534;BME280;44109;52.398;7.024;2023-02-20T04:05:05;101880.16;;;5.88;100.00
58534;BME280;44109;52.398;7.024;2023-02-20T04:07:42;101860.00;;;5.78;100.00
58534;BME280;44109;52.398;7.024;2023-02-20T04:10:21;101894.06;;;5.82;100.00
58534;BME280;44109;52.398;7.024;2023-02-20T04:12:52;101884.97;;;5.96;100.00
58534;BME280;44109;52.398;7.024;2023-02-20T04:15:24;101895.84;;;6.01;100.00
58534;BME280;44109;52.398;7.024;2023-02-20T04:17:54;101841.06;;;5.63;100.00
58534;BME280;44109;52.398;7.024;2023-02-20T04:20:25;101902.13;;;6.15;100.00
58534;BME280;44109;52.398;7.024;2023-02-20T04:22:56;101888.47;;;6.10;100.00
58534;BME280;44109;52.398;7.024;2023-02-20T04:25:36;101889.91;;;6.07;100.00
58534;BME280;44109;52.398;7.024;2023-02-20T04:28:08;101867.88;;;6.07;100.00
58534;BME280;44109;52.398;7.024;2023-02-20T04:30:37;101878.19;;;6.24;100.00
58534;BME280;44109;52.398;7.024;2023-02-20T04:33:06;101879.56;;;6.13;100.00
58534;BME280;44109;52.398;7.024;2023-02-20T04:35:36;101859.03;;;6.19;100.00
58534;BME280;44109;52.398;7.024;2023-02-20T04:38:04;101880.22;;;6.10;100.00
58534;BME280;44109;52.398;7.024;2023-02-20T04:40:34;101874.06;;;6.13;100.00
58534;BME280;44109;52.398;7.024;2023-02-20T04:43:02;101868.81;;;6.25;100.00
58534;BME280;44109;52.398;7.024;2023-02-20T04:45:30;101866.78;;;6.17;100.00
58534;BME280;44109;52.398;7.024;2023-02-20T04:47:57;101887.09;;;6.21;100.00
58534;BME280;44109;52.398;7.024;2023-02-20T04:50:27;101879.81;;;6.25;100.00
58534;BME280;44109;52.398;7.024;2023-02-20T04:52:56;101889.84;;;6.21;100.00
58534;BME280;44109;52.398;7.024;2023-02-20T04:55:25;101883.38;;;6.26;100.00
58534;BME280;44109;52.398;7.024;2023-02-20T04:57:55;101845.75;;;6.21;100.00
58534;BME280;44109;52.398;7.024;2023-02-20T05:00:25;101871.00;;;6.37;100.00
58534;BME280;44109;52.398;7.024;2023-02-20T05:02:53;101872.81;;;6.42;100.00
58534;BME280;44109;52.398;7.024;2023-02-20T05:05:23;101872.44;;;6.34;100.00
58534;BME280;44109;52.398;7.024;2023-02-20T05:07:54;101848.63;;;6.39;100.00
58534;BME280;44109;52.398;7.024;2023-02-20T05:10:24;101867.78;;;6.44;100.00
58534;BME280;44109;52.398;7.024;2023-02-20T05:12:55;101862.94;;;6.49;100.00
58534;BME280;44109;52.398;7.024;2023-02-20T05:15:24;101873.81;;;6.46;100.00
58534;BME280;44109;52.398;7.024;2023-02-20T05:17:52;101865.34;;;6.42;100.00
58534;BME280;44109;52.398;7.024;2023-02-20T05:20:20;101868.63;;;6.53;100.00
58534;BME280;44109;52.398;7.024;2023-02-20T05:23:09;101859.94;;;6.59;100.00
58534;BME280;44109;52.398;7.024;2023-02-20T05:25:35;101859.41;;;6.57;100.00
58534;BME280;44109;52.398;7.024;2023-02-20T05:28:05;101859.75;;;6.56;100.00
58534;BME280;44109;52.398;7.024;2023-02-20T05:30:33;101855.53;;;6.58;100.00
58534;BME280;44109;52.398;7.024;2023-02-20T05:33:00;101864.75;;;6.54;100.00
58534;BME280;44109;52.398;7.024;2023-02-20T05:35:28;101854.22;;;6.56;100.00
58534;BME280;44109;52.398;7.024;2023-02-20T05:37:56;101862.59;;;6.73;100.00
58534;BME280;44109;52.398;7.024;2023-02-20T05:40:23;101867.28;;;6.73;100.00
58534;BME280;44109;52.398;7.024;2023-02-20T05:42:51;101862.72;;;6.68;100.00
58534;BME280;44109;52.398;7.024;2023-02-20T05:45:20;101858.31;;;6.67;100.00
58534;BME280;44109;52.398;7.024;2023-02-20T05:47:47;101841.78;;;6.67;100.00
58534;BME280;44109;52.398;7.024;2023-02-20T05:50:15;101848.94;;;6.68;100.00
58534;BME280;44109;52.398;7.024;2023-02-20T05:52:43;101838.28;;;6.84;100.00
58534;BME280;44109;52.398;7.024;2023-02-20T05:55:11;101849.25;;;6.67;100.00
58534;BME280;44109;52.398;7.024;2023-02-20T05:57:39;101840.38;;;6.78;100.00
58534;BME280;44109;52.398;7.024;2023-02-20T06:00:08;101834.69;;;6.75;100.00
58534;BME280;44109;52.398;7.024;2023-02-20T06:02:37;101827.59;;;6.82;100.00
58534;BME280;44109;52.398;7.024;2023-02-20T06:05:05;101827.59;;;6.82;100.00
58534;BME280;44109;52.398;7.024;2023-02-20T06:07:34;101826.63;;;6.87;100.00
58534;BME280;44109;52.398;7.024;2023-02-20T06:10:02;101841.22;;;6.88;100.00
58534;BME280;44109;52.398;7.024;2023-02-20T06:12:30;101800.31;;;6.72;100.00
58534;BME280;44109;52.398;7.024;2023-02-20T06:14:58;101826.47;;;6.92;100.00
58534;BME280;44109;52.398;7.024;2023-02-20T06:17:25;101827.28;;;6.93;100.00
58534;BME280;44109;52.398;7.024;2023-02-20T06:19:56;101840.13;;;6.97;100.00
58534;BME280;44109;52.398;7.024;2023-02-20T06:22:23;101827.63;;;6.91;100.00
58534;BME280;44109;52.398;7.024;2023-02-20T06:24:51;101805.81;;;6.81;100.00
58534;BME280;44109;52.398;7.024;2023-02-20T06:27:19;101838.94;;;6.90;100.00
58534;BME280;44109;52.398;7.024;2023-02-20T06:29:46;101824.88;;;7.00;100.00
58534;BME280;44109;52.398;7.024;2023-02-20T06:32:15;101830.25;;;7.05;100.00
58534;BME280;44109;52.398;7.024;2023-02-20T06:34:43;101830.91;;;7.10;100.00
58534;BME280;44109;52.398;7.024;2023-02-20T06:37:13;101836.44;;;7.10;100.00
58534;BME280;44109;52.398;7.024;2023-02-20T06:39:41;101828.16;;;7.19;100.00
58534;BME280;44109;52.398;7.024;2023-02-20T06:42:11;101827.19;;;7.24;100.00
58534;BME280;44109;52.398;7.024;2023-02-20T06:44:39;101829.78;;;7.20;100.00
58534;BME280;44109;52.398;7.024;2023-02-20T06:47:07;101841.34;;;7.22;100.00
58534;BME280;44109;52.398;7.024;2023-02-20T06:49:35;101815.63;;;6.96;100.00
58534;BME280;44109;52.398;7.024;2023-02-20T06:52:03;101833.38;;;7.29;100.00
58534;BME280;44109;52.398;7.024;2023-02-20T06:54:33;101815.00;;;7.16;100.00
58534;BME280;44109;52.398;7.024;2023-02-20T06:57:01;101826.84;;;7.17;100.00
58534;BME280;44109;52.398;7.024;2023-02-20T06:59:29;101834.84;;;7.35;100.00
58534;BME280;44109;52.398;7.024;2023-02-20T07:01:56;101833.06;;;7.40;100.00
58534;BME280;44109;52.398;7.024;2023-02-20T07:04:25;101843.47;;;7.51;100.00
58534;BME280;44109;52.398;7.024;2023-02-20T07:06:52;101835.69;;;7.36;100.00
58534;BME280;44109;52.398;7.024;2023-02-20T07:09:20;101836.16;;;7.47;100.00
58534;BME280;44109;52.398;7.024;2023-02-20T07:11:52;101835.69;;;7.36;100.00
58534;BME280;44109;52.398;7.024;2023-02-20T07:14:21;101835.03;;;7.56;100.00
58534;BME280;44109;52.398;7.024;2023-02-20T07:16:49;101834.69;;;7.58;100.00
58534;BME280;44109;52.398;7.024;2023-02-20T07:19:16;101826.41;;;7.49;100.00
58534;BME280;44109;52.398;7.024;2023-02-20T07:21:45;101821.88;;;7.62;100.00
58534;BME280;44109;52.398;7.024;2023-02-20T07:24:13;101765.34;;;7.33;100.00
58534;BME280;44109;52.398;7.024;2023-02-20T07:26:41;101805.78;;;7.47;100.00
58534;BME280;44109;52.398;7.024;2023-02-20T07:29:11;101811.63;;;7.62;100.00
58534;BME280;44109;52.398;7.024;2023-02-20T07:31:40;101813.91;;;7.60;100.00
58534;BME280;44109;52.398;7.024;2023-02-20T07:34:07;101824.16;;;7.69;100.00
58534;BME280;44109;52.398;7.024;2023-02-20T07:36:35;101829.84;;;7.72;100.00
58534;BME280;44109;52.398;7.024;2023-02-20T07:39:03;101825.44;;;7.62;100.00
58534;BME280;44109;52.398;7.024;2023-02-20T07:41:32;101795.88;;;7.72;100.00
58534;BME280;44109;52.398;7.024;2023-02-20T07:44:01;101832.59;;;7.63;100.00
58534;BME280;44109;52.398;7.024;2023-02-20T07:46:30;101826.41;;;7.75;100.00
58534;BME280;44109;52.398;7.024;2023-02-20T07:49:00;101828.19;;;7.80;100.00
58534;BME280;44109;52.398;7.024;2023-02-20T07:51:28;101810.53;;;7.72;100.00
58534;BME280;44109;52.398;7.024;2023-02-20T07:53:57;101825.09;;;7.90;100.00
58534;BME280;44109;52.398;7.024;2023-02-20T07:56:25;101818.13;;;7.93;100.00
58534;BME280;44109;52.398;7.024;2023-02-20T07:58:53;101815.03;;;7.85;100.00
58534;BME280;44109;52.398;7.024;2023-02-20T08:01:20;101805.75;;;7.90;100.00
58534;BME280;44109;52.398;7.024;2023-02-20T08:03:49;101817.75;;;8.11;100.00
58534;BME280;44109;52.398;7.024;2023-02-20T08:06:18;101822.84;;;8.01;100.00
58534;BME280;44109;52.398;7.024;2023-02-20T08:08:46;101811.44;;;8.11;100.00
58534;BME280;44109;52.398;7.024;2023-02-20T08:11:15;101808.50;;;7.99;100.00
58534;BME280;44109;52.398;7.024;2023-02-20T08:13:44;101808.66;;;8.11;100.00
58534;BME280;44109;52.398;7.024;2023-02-20T08:16:12;101801.19;;;8.11;100.00
58534;BME280;44109;52.398;7.024;2023-02-20T08:18:39;101794.81;;;8.37;100.00
58534;BME280;44109;52.398;7.024;2023-02-20T08:21:08;101796.25;;;8.34;100.00
58534;BME280;44109;52.398;7.024;2023-02-20T08:23:36;101793.19;;;8.27;100.00
58534;BME280;44109;52.398;7.024;2023-02-20T08:26:04;101791.84;;;8.33;100.00
58534;BME280;44109;52.398;7.024;2023-02-20T08:28:32;101789.44;;;8.41;100.00
58534;BME280;44109;52.398;7.024;2023-02-20T08:31:00;101770.22;;;8.35;100.00
58534;BME280;44109;52.398;7.024;2023-02-20T08:33:27;101782.75;;;8.42;100.00
58534;BME280;44109;52.398;7.024;2023-02-20T08:35:55;101788.22;;;8.59;100.00
58534;BME280;44109;52.398;7.024;2023-02-20T08:38:27;101775.66;;;8.61;100.00
58534;BME280;44109;52.398;7.024;2023-02-20T08:40:56;101781.44;;;8.48;100.00
58534;BME280;44109;52.398;7.024;2023-02-20T08:43:24;101781.16;;;8.41;100.00
58534;BME280;44109;52.398;7.024;2023-02-20T08:45:52;101773.16;;;8.39;100.00
58534;BME280;44109;52.398;7.024;2023-02-20T08:48:20;101775.41;;;8.54;100.00
58534;BME280;44109;52.398;7.024;2023-02-20T08:50:47;101784.69;;;8.50;100.00
58534;BME280;44109;52.398;7.024;2023-02-20T08:53:15;101780.94;;;8.54;100.00
58534;BME280;44109;52.398;7.024;2023-02-20T08:55:44;101781.34;;;8.65;100.00
58534;BME280;44109;52.398;7.024;2023-02-20T08:58:12;101780.25;;;8.57;100.00
58534;BME280;44109;52.398;7.024;2023-02-20T09:00:40;101782.34;;;8.60;100.00
58534;BME280;44109;52.398;7.024;2023-02-20T09:03:07;101778.78;;;8.60;100.00
58534;BME280;44109;52.398;7.024;2023-02-20T09:05:35;101778.59;;;8.65;100.00
58534;BME280;44109;52.398;7.024;2023-02-20T09:08:03;101793.66;;;8.76;100.00
58534;BME280;44109;52.398;7.024;2023-02-20T09:10:31;101784.22;;;8.77;100.00
58534;BME280;44109;52.398;7.024;2023-02-20T09:13:00;101780.59;;;8.85;100.00
58534;BME280;44109;52.398;7.024;2023-02-20T09:15:28;101792.59;;;8.89;100.00
58534;BME280;44109;52.398;7.024;2023-02-20T09:17:56;101782.78;;;9.01;100.00
58534;BME280;44109;52.398;7.024;2023-02-20T09:20:24;101773.97;;;8.78;100.00
58534;BME280;44109;52.398;7.024;2023-02-20T09:22:56;101778.31;;;8.87;100.00
58534;BME280;44109;52.398;7.024;2023-02-20T09:25:25;101791.66;;;8.85;100.00
58534;BME280;44109;52.398;7.024;2023-02-20T09:27:53;101789.38;;;8.87;100.00
58534;BME280;44109;52.398;7.024;2023-02-20T09:30:22;101800.53;;;9.00;100.00
58534;BME280;44109;52.398;7.024;2023-02-20T09:32:50;101796.63;;;9.01;100.00
58534;BME280;44109;52.398;7.024;2023-02-20T09:35:21;101797.56;;;8.75;100.00
58534;BME280;44109;52.398;7.024;2023-02-20T09:37:51;101806.22;;;8.74;100.00
58534;BME280;44109;52.398;7.024;2023-02-20T09:40:20;101813.78;;;8.85;100.00
58534;BME280;44109;52.398;7.024;2023-02-20T09:43:02;101813.22;;;8.71;100.00
58534;BME280;44109;52.398;7.024;2023-02-20T09:45:46;101803.44;;;8.74;100.00
58534;BME280;44109;52.398;7.024;2023-02-20T09:48:52;101800.72;;;8.95;100.00
58534;BME280;44109;52.398;7.024;2023-02-20T09:51:30;101788.97;;;8.77;100.00
58534;BME280;44109;52.398;7.024;2023-02-20T09:54:01;101785.81;;;8.87;100.00
58534;BME280;44109;52.398;7.024;2023-02-20T09:56:34;101797.94;;;8.95;100.00
58534;BME280;44109;52.398;7.024;2023-02-20T09:59:07;101806.03;;;8.79;100.00
58534;BME280;44109;52.398;7.024;2023-02-20T10:01:45;101836.09;;;8.80;100.00
58534;BME280;44109;52.398;7.024;2023-02-20T10:04:21;101825.63;;;8.95;100.00
58534;BME280;44109;52.398;7.024;2023-02-20T10:06:59;101811.41;;;8.75;100.00
58534;BME280;44109;52.398;7.024;2023-02-20T10:09:36;101806.78;;;8.88;100.00
58534;BME280;44109;52.398;7.024;2023-02-20T10:12:09;101809.31;;;9.02;100.00
58534;BME280;44109;52.398;7.024;2023-02-20T10:15:12;101809.59;;;9.09;100.00
58534;BME280;44109;52.398;7.024;2023-02-20T10:17:53;101802.91;;;9.10;100.00
58534;BME280;44109;52.398;7.024;2023-02-20T10:20:35;101812.59;;;9.25;100.00
58534;BME280;44109;52.398;7.024;2023-02-20T10:23:17;101822.31;;;9.31;100.00
58534;BME280;44109;52.398;7.024;2023-02-20T10:25:54;101794.50;;;9.27;100.00
58534;BME280;44109;52.398;7.024;2023-02-20T10:28:25;101795.25;;;9.36;100.00
58534;BME280;44109;52.398;7.024;2023-02-20T10:30:57;101791.44;;;9.20;100.00
58534;BME280;44109;52.398;7.024;2023-02-20T10:33:35;101803.63;;;9.28;100.00
58534;BME280;44109;52.398;7.024;2023-02-20T10:36:11;101810.78;;;9.29;100.00
58534;BME280;44109;52.398;7.024;2023-02-20T10:38:49;101802.78;;;9.06;100.00
58534;BME280;44109;52.398;7.024;2023-02-20T10:41:25;101803.72;;;9.10;100.00
58534;BME280;44109;52.398;7.024;2023-02-20T10:44:01;101822.09;;;9.15;100.00
58534;BME280;44109;52.398;7.024;2023-02-20T10:46:39;101806.84;;;9.30;100.00
58534;BME280;44109;52.398;7.024;2023-02-20T10:49:16;101800.66;;;9.33;100.00
58534;BME280;44109;52.398;7.024;2023-02-20T10:51:51;101798.47;;;9.38;100.00
58534;BME280;44109;52.398;7.024;2023-02-20T10:54:30;101798.47;;;9.38;100.00
58534;BME280;44109;52.398;7.024;2023-02-20T10:57:09;101790.66;;;9.40;100.00
58534;BME280;44109;52.398;7.024;2023-02-20T10:59:49;101787.69;;;9.46;100.00
58534;BME280;44109;52.398;7.024;2023-02-20T11:02:28;101796.09;;;9.49;100.00
58534;BME280;44109;52.398;7.024;2023-02-20T11:05:05;101780.91;;;9.34;100.00
58534;BME280;44109;52.398;7.024;2023-02-20T11:07:36;101764.31;;;9.34;100.00
58534;BME280;44109;52.398;7.024;2023-02-20T11:10:04;101767.81;;;9.44;100.00
58534;BME280;44109;52.398;7.024;2023-02-20T11:12:35;101773.09;;;9.36;100.00
58534;BME280;44109;52.398;7.024;2023-02-20T11:15:09;101767.63;;;9.28;100.00
58534;BME280;44109;52.398;7.024;2023-02-20T11:17:40;101783.75;;;9.47;100.00
58534;BME280;44109;52.398;7.024;2023-02-20T11:23:40;101809.31;;;9.31;100.00
58534;BME280;44109;52.398;7.024;2023-02-20T11:26:25;101802.41;;;9.37;100.00
58534;BME280;44109;52.398;7.024;2023-02-20T11:29:01;101792.88;;;9.47;100.00
58534;BME280;44109;52.398;7.024;2023-02-20T11:31:33;101787.41;;;9.38;100.00
58534;BME280;44109;52.398;7.024;2023-02-20T11:34:03;101805.63;;;9.39;100.00
58534;BME280;44109;52.398;7.024;2023-02-20T11:36:37;101794.69;;;9.43;100.00
58534;BME280;44109;52.398;7.024;2023-02-20T11:39:18;101784.19;;;9.36;100.00
58534;BME280;44109;52.398;7.024;2023-02-20T11:42:03;101779.03;;;9.26;100.00
58534;BME280;44109;52.398;7.024;2023-02-20T11:44:36;101778.34;;;9.29;100.00
58534;BME280;44109;52.398;7.024;2023-02-20T11:47:10;101788.22;;;9.18;100.00
58534;BME280;44109;52.398;7.024;2023-02-20T11:49:46;101791.19;;;9.13;100.00
58534;BME280;44109;52.398;7.024;2023-02-20T11:52:18;101788.06;;;9.14;100.00
58534;BME280;44109;52.398;7.024;2023-02-20T11:55:08;101776.44;;;9.21;100.00
58534;BME280;44109;52.398;7.024;2023-02-20T11:57:42;101782.88;;;9.13;100.00
58534;BME280;44109;52.398;7.024;2023-02-20T12:00:15;101781.72;;;9.14;100.00
58534;BME280;44109;52.398;7.024;2023-02-20T12:02:55;101773.38;;;9.23;100.00
58534;BME280;44109;52.398;7.024;2023-02-20T12:05:39;101760.44;;;9.48;100.00
58534;BME280;44109;52.398;7.024;2023-02-20T12:08:33;101756.50;;;9.36;100.00
58534;BME280;44109;52.398;7.024;2023-02-20T12:11:07;101756.06;;;9.47;100.00
58534;BME280;44109;52.398;7.024;2023-02-20T12:13:39;101754.56;;;9.49;100.00
58534;BME280;44109;52.398;7.024;2023-02-20T12:16:22;101751.47;;;9.51;100.00
58534;BME280;44109;52.398;7.024;2023-02-20T12:19:05;101763.50;;;9.55;100.00
58534;BME280;44109;52.398;7.024;2023-02-20T12:21:51;101730.63;;;9.32;100.00
58534;BME280;44109;52.398;7.024;2023-02-20T12:24:57;101765.78;;;9.53;100.00
58534;BME280;44109;52.398;7.024;2023-02-20T12:30:46;101756.13;;;9.59;100.00
58534;BME280;44109;52.398;7.024;2023-02-20T12:33:40;101745.72;;;9.56;100.00
58534;BME280;44109;52.398;7.024;2023-02-20T12:36:38;101750.53;;;9.47;100.00
58534;BME280;44109;52.398;7.024;2023-02-20T12:39:16;101755.78;;;9.39;100.00
58534;BME280;44109;52.398;7.024;2023-02-20T12:42:04;101747.75;;;9.47;100.00
58534;BME280;44109;52.398;7.024;2023-02-20T12:44:58;101768.50;;;9.40;100.00
58534;BME280;44109;52.398;7.024;2023-02-20T12:47:36;101777.28;;;9.43;100.00
58534;BME280;44109;52.398;7.024;2023-02-20T12:53:45;101766.94;;;9.31;100.00
58534;BME280;44109;52.398;7.024;2023-02-20T12:56:31;101751.63;;;9.33;100.00
58534;BME280;44109;52.398;7.024;2023-02-20T12:59:17;101744.88;;;9.22;100.00
58534;BME280;44109;52.398;7.024;2023-02-20T13:01:53;101753.19;;;9.22;100.00
58534;BME280;44109;52.398;7.024;2023-02-20T13:04:28;101761.19;;;9.15;100.00
58534;BME280;44109;52.398;7.024;2023-02-20T13:07:03;101754.84;;;9.35;100.00
58534;BME280;44109;52.398;7.024;2023-02-20T13:09:39;101753.69;;;9.15;100.00
58534;BME280;44109;52.398;7.024;2023-02-20T13:12:15;101755.00;;;9.18;100.00
58534;BME280;44109;52.398;7.024;2023-02-20T13:14:57;101751.63;;;9.33;100.00
58534;BME280;44109;52.398;7.024;2023-02-20T13:17:39;101734.94;;;9.21;100.00
58534;BME280;44109;52.398;7.024;2023-02-20T13:20:18;101750.88;;;9.24;100.00
58534;BME280;44109;52.398;7.024;2023-02-20T13:22:59;101730.41;;;9.17;100.00
58534;BME280;44109;52.398;7.024;2023-02-20T13:25:39;101734.88;;;9.09;100.00
58534;BME280;44109;52.398;7.024;2023-02-20T13:28:36;101739.00;;;9.24;100.00
58534;BME280;44109;52.398;7.024;2023-02-20T13:31:22;101720.34;;;9.12;100.00
58534;BME280;44109;52.398;7.024;2023-02-20T13:34:26;101732.72;;;9.14;100.00
58534;BME280;44109;52.398;7.024;2023-02-20T13:36:59;101720.06;;;9.26;100.00
58534;BME280;44109;52.398;7.024;2023-02-20T13:39:36;101729.19;;;9.26;100.00
58534;BME280;44109;52.398;7.024;2023-02-20T13:42:32;101731.41;;;9.33;100.00
58534;BME280;44109;52.398;7.024;2023-02-20T13:45:33;101725.28;;;9.06;100.00